sensor_id;sensor_type;location;lat;lon;timestamp;P1;durP1;ratioP1;P2;durP2;ratioP2
2404;SDS011;1213;43.206;27.922;2022-08-14T00:00:33;16.43;;;9.80;;
2404;SDS011;1213;43.206;27.922;2022-08-14T00:02:58;13.70;;;9.40;;
2404;SDS011;1213;43.206;27.922;2022-08-14T00:05:24;12.80;;;8.87;;
2404;SDS011;1213;43.206;27.922;2022-08-14T00:07:50;13.70;;;8.80;;
2404;SDS011;1213;43.206;27.922;2022-08-14T00:10:17;12.50;;;7.83;;
2404;SDS011;1213;43.206;27.922;2022-08-14T00:12:47;14.57;;;9.30;;
2404;SDS011;1213;43.206;27.922;2022-08-14T00:15:20;12.50;;;9.97;;
2404;SDS011;1213;43.206;27.922;2022-08-14T00:17:51;12.33;;;8.50;;
2404;SDS011;1213;43.206;27.922;2022-08-14T00:20:17;11.77;;;8.77;;
2404;SDS011;1213;43.206;27.922;2022-08-14T00:22:45;14.57;;;8.27;;
2404;SDS011;1213;43.206;27.922;2022-08-14T00:25:11;14.50;;;8.50;;
2404;SDS011;1213;43.206;27.922;2022-08-14T00:27:37;8.93;;;7.77;;
2404;SDS011;1213;43.206;27.922;2022-08-14T00:30:05;13.33;;;8.87;;
2404;SDS011;1213;43.206;27.922;2022-08-14T00:32:33;14.73;;;8.50;;
2404;SDS011;1213;43.206;27.922;2022-08-14T00:34:58;12.70;;;8.73;;
2404;SDS011;1213;43.206;27.922;2022-08-14T00:37:26;13.67;;;7.60;;
2404;SDS011;1213;43.206;27.922;2022-08-14T00:39:53;10.37;;;7.50;;
2404;SDS011;1213;43.206;27.922;2022-08-14T00:42:19;11.57;;;7.77;;
2404;SDS011;1213;43.206;27.922;2022-08-14T00:44:45;10.97;;;6.67;;
2404;SDS011;1213;43.206;27.922;2022-08-14T00:47:12;13.80;;;8.23;;
2404;SDS011;1213;43.206;27.922;2022-08-14T00:49:38;11.10;;;9.20;;
2404;SDS011;1213;43.206;27.922;2022-08-14T00:52:04;15.07;;;10.23;;
2404;SDS011;1213;43.206;27.922;2022-08-14T00:54:30;13.13;;;9.07;;
2404;SDS011;1213;43.206;27.922;2022-08-14T00:56:55;16.50;;;9.30;;
2404;SDS011;1213;43.206;27.922;2022-08-14T00:59:25;14.20;;;9.23;;
2404;SDS011;1213;43.206;27.922;2022-08-14T01:01:56;15.23;;;9.40;;
2404;SDS011;1213;43.206;27.922;2022-08-14T01:04:24;13.77;;;9.60;;
2404;SDS011;1213;43.206;27.922;2022-08-14T01:06:50;15.10;;;9.30;;
2404;SDS011;1213;43.206;27.922;2022-08-14T01:09:19;21.10;;;9.67;;
2404;SDS011;1213;43.206;27.922;2022-08-14T01:11:49;15.80;;;10.43;;
2404;SDS011;1213;43.206;27.922;2022-08-14T01:14:15;12.90;;;9.17;;
2404;SDS011;1213;43.206;27.922;2022-08-14T01:16:41;15.07;;;9.20;;
2404;SDS011;1213;43.206;27.922;2022-08-14T01:19:07;17.60;;;9.97;;
2404;SDS011;1213;43.206;27.922;2022-08-14T01:21:51;15.97;;;10.37;;
2404;SDS011;1213;43.206;27.922;2022-08-14T01:24:17;14.60;;;9.67;;
2404;SDS011;1213;43.206;27.922;2022-08-14T01:26:45;27.33;;;14.60;;
2404;SDS011;1213;43.206;27.922;2022-08-14T01:29:11;23.97;;;14.00;;
2404;SDS011;1213;43.206;27.922;2022-08-14T01:31:37;22.20;;;14.27;;
2404;SDS011;1213;43.206;27.922;2022-08-14T01:34:23;29.23;;;15.87;;
2404;SDS011;1213;43.206;27.922;2022-08-14T01:36:50;25.87;;;18.03;;
2404;SDS011;1213;43.206;27.922;2022-08-14T01:39:18;32.00;;;21.10;;
2404;SDS011;1213;43.206;27.922;2022-08-14T01:41:47;26.17;;;18.50;;
2404;SDS011;1213;43.206;27.922;2022-08-14T01:44:20;31.63;;;20.07;;
2404;SDS011;1213;43.206;27.922;2022-08-14T01:46:48;36.07;;;19.60;;
2404;SDS011;1213;43.206;27.922;2022-08-14T01:49:18;41.23;;;24.80;;
2404;SDS011;1213;43.206;27.922;2022-08-14T01:51:45;33.07;;;21.23;;
2404;SDS011;1213;43.206;27.922;2022-08-14T01:54:13;39.27;;;23.00;;
2404;SDS011;1213;43.206;27.922;2022-08-14T01:56:45;36.67;;;23.00;;
2404;SDS011;1213;43.206;27.922;2022-08-14T01:59:19;41.07;;;22.27;;
2404;SDS011;1213;43.206;27.922;2022-08-14T02:01:48;39.43;;;20.23;;
2404;SDS011;1213;43.206;27.922;2022-08-14T02:04:16;35.73;;;23.80;;
2404;SDS011;1213;43.206;27.922;2022-08-14T02:06:42;34.97;;;21.57;;
2404;SDS011;1213;43.206;27.922;2022-08-14T02:09:08;36.27;;;19.50;;
2404;SDS011;1213;43.206;27.922;2022-08-14T02:11:34;29.13;;;19.57;;
2404;SDS011;1213;43.206;27.922;2022-08-14T02:14:01;28.67;;;16.67;;
2404;SDS011;1213;43.206;27.922;2022-08-14T02:16:35;29.37;;;18.53;;
2404;SDS011;1213;43.206;27.922;2022-08-14T02:19:13;26.70;;;14.73;;
2404;SDS011;1213;43.206;27.922;2022-08-14T02:21:40;20.87;;;12.27;;
2404;SDS011;1213;43.206;27.922;2022-08-14T02:24:07;22.00;;;13.97;;
2404;SDS011;1213;43.206;27.922;2022-08-14T02:26:34;18.30;;;11.50;;
2404;SDS011;1213;43.206;27.922;2022-08-14T02:29:03;19.50;;;11.33;;
2404;SDS011;1213;43.206;27.922;2022-08-14T02:31:31;21.90;;;11.47;;
2404;SDS011;1213;43.206;27.922;2022-08-14T02:33:59;16.90;;;11.40;;
2404;SDS011;1213;43.206;27.922;2022-08-14T02:36:29;18.57;;;11.80;;
2404;SDS011;1213;43.206;27.922;2022-08-14T02:38:54;20.33;;;14.27;;
2404;SDS011;1213;43.206;27.922;2022-08-14T02:41:20;23.50;;;15.77;;
2404;SDS011;1213;43.206;27.922;2022-08-14T02:43:45;29.10;;;15.33;;
2404;SDS011;1213;43.206;27.922;2022-08-14T02:46:11;23.40;;;15.13;;
2404;SDS011;1213;43.206;27.922;2022-08-14T02:48:41;32.47;;;18.57;;
2404;SDS011;1213;43.206;27.922;2022-08-14T02:51:09;29.00;;;16.90;;
2404;SDS011;1213;43.206;27.922;2022-08-14T02:53:36;26.33;;;11.93;;
2404;SDS011;1213;43.206;27.922;2022-08-14T02:56:04;23.23;;;14.53;;
2404;SDS011;1213;43.206;27.922;2022-08-14T02:58:31;31.40;;;14.87;;
2404;SDS011;1213;43.206;27.922;2022-08-14T03:01:00;21.07;;;13.93;;
2404;SDS011;1213;43.206;27.922;2022-08-14T03:03:25;16.53;;;10.90;;
2404;SDS011;1213;43.206;27.922;2022-08-14T03:05:51;19.00;;;12.27;;
2404;SDS011;1213;43.206;27.922;2022-08-14T03:08:17;26.47;;;14.00;;
2404;SDS011;1213;43.206;27.922;2022-08-14T03:10:44;20.93;;;12.13;;
2404;SDS011;1213;43.206;27.922;2022-08-14T03:13:10;24.00;;;13.50;;
2404;SDS011;1213;43.206;27.922;2022-08-14T03:15:35;17.90;;;11.20;;
2404;SDS011;1213;43.206;27.922;2022-08-14T03:18:09;17.80;;;12.67;;
2404;SDS011;1213;43.206;27.922;2022-08-14T03:20:36;15.87;;;10.80;;
2404;SDS011;1213;43.206;27.922;2022-08-14T03:23:01;18.50;;;10.47;;
2404;SDS011;1213;43.206;27.922;2022-08-14T03:25:27;19.80;;;9.80;;
2404;SDS011;1213;43.206;27.922;2022-08-14T03:27:57;14.33;;;9.67;;
2404;SDS011;1213;43.206;27.922;2022-08-14T03:30:26;14.33;;;8.20;;
2404;SDS011;1213;43.206;27.922;2022-08-14T03:32:51;17.47;;;7.80;;
2404;SDS011;1213;43.206;27.922;2022-08-14T03:35:18;25.33;;;10.43;;
2404;SDS011;1213;43.206;27.922;2022-08-14T03:37:43;15.23;;;11.30;;
2404;SDS011;1213;43.206;27.922;2022-08-14T03:40:09;11.53;;;7.77;;
2404;SDS011;1213;43.206;27.922;2022-08-14T03:42:36;13.00;;;8.77;;
2404;SDS011;1213;43.206;27.922;2022-08-14T03:45:03;10.10;;;7.43;;
2404;SDS011;1213;43.206;27.922;2022-08-14T03:47:30;13.23;;;8.50;;
2404;SDS011;1213;43.206;27.922;2022-08-14T03:49:57;12.80;;;9.10;;
2404;SDS011;1213;43.206;27.922;2022-08-14T03:52:22;11.60;;;8.67;;
2404;SDS011;1213;43.206;27.922;2022-08-14T03:54:48;11.20;;;8.17;;
2404;SDS011;1213;43.206;27.922;2022-08-14T03:57:14;12.83;;;6.67;;
2404;SDS011;1213;43.206;27.922;2022-08-14T03:59:39;17.60;;;8.23;;
2404;SDS011;1213;43.206;27.922;2022-08-14T04:02:04;13.40;;;7.90;;
2404;SDS011;1213;43.206;27.922;2022-08-14T04:04:30;13.30;;;8.03;;
2404;SDS011;1213;43.206;27.922;2022-08-14T04:06:56;14.47;;;9.83;;
2404;SDS011;1213;43.206;27.922;2022-08-14T04:09:23;14.90;;;9.10;;
2404;SDS011;1213;43.206;27.922;2022-08-14T04:11:49;11.60;;;8.67;;
2404;SDS011;1213;43.206;27.922;2022-08-14T04:14:14;12.20;;;8.17;;
2404;SDS011;1213;43.206;27.922;2022-08-14T04:16:40;17.63;;;10.13;;
2404;SDS011;1213;43.206;27.922;2022-08-14T04:19:10;13.50;;;10.10;;
2404;SDS011;1213;43.206;27.922;2022-08-14T04:21:36;19.60;;;9.53;;
2404;SDS011;1213;43.206;27.922;2022-08-14T04:24:02;14.47;;;8.07;;
2404;SDS011;1213;43.206;27.922;2022-08-14T04:26:30;14.50;;;9.53;;
2404;SDS011;1213;43.206;27.922;2022-08-14T04:28:56;16.40;;;10.10;;
2404;SDS011;1213;43.206;27.922;2022-08-14T04:31:22;16.20;;;10.43;;
2404;SDS011;1213;43.206;27.922;2022-08-14T04:33:49;14.40;;;8.77;;
2404;SDS011;1213;43.206;27.922;2022-08-14T04:36:17;13.17;;;8.20;;
2404;SDS011;1213;43.206;27.922;2022-08-14T04:38:43;11.63;;;7.87;;
2404;SDS011;1213;43.206;27.922;2022-08-14T04:41:27;15.73;;;9.00;;
2404;SDS011;1213;43.206;27.922;2022-08-14T04:44:11;11.27;;;8.17;;
2404;SDS011;1213;43.206;27.922;2022-08-14T04:46:36;12.50;;;9.47;;
2404;SDS011;1213;43.206;27.922;2022-08-14T04:49:02;14.80;;;9.23;;
2404;SDS011;1213;43.206;27.922;2022-08-14T04:51:28;14.93;;;9.47;;
2404;SDS011;1213;43.206;27.922;2022-08-14T04:53:54;13.07;;;9.27;;
2404;SDS011;1213;43.206;27.922;2022-08-14T04:56:21;14.60;;;9.03;;
2404;SDS011;1213;43.206;27.922;2022-08-14T04:58:49;17.73;;;12.67;;
2404;SDS011;1213;43.206;27.922;2022-08-14T05:01:19;13.27;;;8.27;;
2404;SDS011;1213;43.206;27.922;2022-08-14T05:03:45;15.90;;;8.67;;
2404;SDS011;1213;43.206;27.922;2022-08-14T05:06:11;12.43;;;8.90;;
2404;SDS011;1213;43.206;27.922;2022-08-14T05:08:37;19.97;;;7.73;;
2404;SDS011;1213;43.206;27.922;2022-08-14T05:11:05;13.47;;;8.87;;
2404;SDS011;1213;43.206;27.922;2022-08-14T05:13:32;11.37;;;7.63;;
2404;SDS011;1213;43.206;27.922;2022-08-14T05:15:59;12.47;;;8.20;;
2404;SDS011;1213;43.206;27.922;2022-08-14T05:18:29;11.93;;;8.07;;
2404;SDS011;1213;43.206;27.922;2022-08-14T05:20:57;15.17;;;9.87;;
2404;SDS011;1213;43.206;27.922;2022-08-14T05:23:27;14.20;;;9.03;;
2404;SDS011;1213;43.206;27.922;2022-08-14T05:25:55;17.77;;;10.67;;
2404;SDS011;1213;43.206;27.922;2022-08-14T05:28:26;17.30;;;11.67;;
2404;SDS011;1213;43.206;27.922;2022-08-14T05:30:54;17.80;;;9.47;;
2404;SDS011;1213;43.206;27.922;2022-08-14T05:33:23;15.20;;;11.07;;
2404;SDS011;1213;43.206;27.922;2022-08-14T05:35:52;18.40;;;10.60;;
2404;SDS011;1213;43.206;27.922;2022-08-14T05:38:25;12.00;;;8.93;;
2404;SDS011;1213;43.206;27.922;2022-08-14T05:40:53;15.10;;;9.03;;
2404;SDS011;1213;43.206;27.922;2022-08-14T05:43:18;14.07;;;9.60;;
2404;SDS011;1213;43.206;27.922;2022-08-14T05:45:44;11.40;;;8.17;;
2404;SDS011;1213;43.206;27.922;2022-08-14T05:48:12;16.73;;;10.10;;
2404;SDS011;1213;43.206;27.922;2022-08-14T05:50:38;15.23;;;9.60;;
2404;SDS011;1213;43.206;27.922;2022-08-14T05:53:04;16.83;;;9.87;;
2404;SDS011;1213;43.206;27.922;2022-08-14T05:55:30;14.03;;;9.43;;
2404;SDS011;1213;43.206;27.922;2022-08-14T05:58:00;15.57;;;10.00;;
2404;SDS011;1213;43.206;27.922;2022-08-14T06:00:40;12.93;;;9.47;;
2404;SDS011;1213;43.206;27.922;2022-08-14T06:03:11;12.07;;;9.10;;
2404;SDS011;1213;43.206;27.922;2022-08-14T06:05:40;12.97;;;8.87;;
2404;SDS011;1213;43.206;27.922;2022-08-14T06:11:03;9.93;;;7.50;;
2404;SDS011;1213;43.206;27.922;2022-08-14T06:13:40;13.60;;;8.10;;
2404;SDS011;1213;43.206;27.922;2022-08-14T06:16:07;10.53;;;7.70;;
2404;SDS011;1213;43.206;27.922;2022-08-14T06:18:33;11.87;;;6.97;;
2404;SDS011;1213;43.206;27.922;2022-08-14T06:21:00;11.37;;;7.83;;
2404;SDS011;1213;43.206;27.922;2022-08-14T06:23:26;9.07;;;6.63;;
2404;SDS011;1213;43.206;27.922;2022-08-14T06:25:52;13.23;;;8.40;;
2404;SDS011;1213;43.206;27.922;2022-08-14T06:28:22;9.80;;;6.33;;
2404;SDS011;1213;43.206;27.922;2022-08-14T06:30:50;12.10;;;7.17;;
2404;SDS011;1213;43.206;27.922;2022-08-14T06:33:17;15.37;;;7.87;;
2404;SDS011;1213;43.206;27.922;2022-08-14T06:35:44;11.40;;;8.30;;
2404;SDS011;1213;43.206;27.922;2022-08-14T06:38:17;12.67;;;6.70;;
2404;SDS011;1213;43.206;27.922;2022-08-14T06:40:44;13.90;;;7.50;;
2404;SDS011;1213;43.206;27.922;2022-08-14T06:43:11;9.80;;;7.47;;
2404;SDS011;1213;43.206;27.922;2022-08-14T06:45:37;9.13;;;6.83;;
2404;SDS011;1213;43.206;27.922;2022-08-14T06:48:15;11.93;;;6.90;;
2404;SDS011;1213;43.206;27.922;2022-08-14T06:50:42;11.03;;;7.03;;
2404;SDS011;1213;43.206;27.922;2022-08-14T06:53:09;9.47;;;6.57;;
2404;SDS011;1213;43.206;27.922;2022-08-14T06:55:35;11.07;;;6.03;;
2404;SDS011;1213;43.206;27.922;2022-08-14T06:58:01;9.10;;;6.37;;
2404;SDS011;1213;43.206;27.922;2022-08-14T07:00:28;9.60;;;6.40;;
2404;SDS011;1213;43.206;27.922;2022-08-14T07:02:53;12.77;;;7.87;;
2404;SDS011;1213;43.206;27.922;2022-08-14T07:05:38;13.00;;;7.23;;
2404;SDS011;1213;43.206;27.922;2022-08-14T07:10:39;11.17;;;7.00;;
2404;SDS011;1213;43.206;27.922;2022-08-14T07:13:06;10.03;;;7.10;;
2404;SDS011;1213;43.206;27.922;2022-08-14T07:15:32;8.17;;;6.93;;
2404;SDS011;1213;43.206;27.922;2022-08-14T07:17:57;8.63;;;6.17;;
2404;SDS011;1213;43.206;27.922;2022-08-14T07:20:23;9.40;;;6.20;;
2404;SDS011;1213;43.206;27.922;2022-08-14T07:22:51;8.27;;;6.57;;
2404;SDS011;1213;43.206;27.922;2022-08-14T07:25:20;7.83;;;6.10;;
2404;SDS011;1213;43.206;27.922;2022-08-14T07:27:46;9.30;;;6.03;;
2404;SDS011;1213;43.206;27.922;2022-08-14T07:30:11;10.50;;;6.03;;
2404;SDS011;1213;43.206;27.922;2022-08-14T07:32:37;8.90;;;6.30;;
2404;SDS011;1213;43.206;27.922;2022-08-14T07:35:02;7.90;;;6.00;;
2404;SDS011;1213;43.206;27.922;2022-08-14T07:37:28;11.03;;;6.40;;
2404;SDS011;1213;43.206;27.922;2022-08-14T07:39:53;10.07;;;6.20;;
2404;SDS011;1213;43.206;27.922;2022-08-14T07:42:19;11.47;;;8.13;;
2404;SDS011;1213;43.206;27.922;2022-08-14T07:44:45;8.80;;;6.40;;
2404;SDS011;1213;43.206;27.922;2022-08-14T07:47:10;6.97;;;6.27;;
2404;SDS011;1213;43.206;27.922;2022-08-14T07:49:36;7.27;;;5.87;;
2404;SDS011;1213;43.206;27.922;2022-08-14T07:52:01;10.43;;;6.50;;
2404;SDS011;1213;43.206;27.922;2022-08-14T07:54:28;10.90;;;7.20;;
2404;SDS011;1213;43.206;27.922;2022-08-14T07:56:53;8.87;;;6.83;;
2404;SDS011;1213;43.206;27.922;2022-08-14T07:59:19;10.40;;;6.80;;
2404;SDS011;1213;43.206;27.922;2022-08-14T08:01:46;8.67;;;6.53;;
2404;SDS011;1213;43.206;27.922;2022-08-14T08:04:12;9.87;;;5.93;;
2404;SDS011;1213;43.206;27.922;2022-08-14T08:06:39;7.93;;;6.57;;
2404;SDS011;1213;43.206;27.922;2022-08-14T08:09:05;7.27;;;5.43;;
2404;SDS011;1213;43.206;27.922;2022-08-14T08:11:34;8.57;;;6.23;;
2404;SDS011;1213;43.206;27.922;2022-08-14T08:14:03;8.70;;;6.87;;
2404;SDS011;1213;43.206;27.922;2022-08-14T08:16:34;9.20;;;6.33;;
2404;SDS011;1213;43.206;27.922;2022-08-14T08:19:02;8.43;;;5.97;;
2404;SDS011;1213;43.206;27.922;2022-08-14T08:21:30;10.07;;;6.73;;
2404;SDS011;1213;43.206;27.922;2022-08-14T08:23:55;11.80;;;7.70;;
2404;SDS011;1213;43.206;27.922;2022-08-14T08:26:27;6.80;;;5.50;;
2404;SDS011;1213;43.206;27.922;2022-08-14T08:28:57;9.07;;;6.73;;
2404;SDS011;1213;43.206;27.922;2022-08-14T08:31:23;9.33;;;7.23;;
2404;SDS011;1213;43.206;27.922;2022-08-14T08:33:50;9.33;;;6.87;;
2404;SDS011;1213;43.206;27.922;2022-08-14T08:36:17;10.23;;;7.23;;
2404;SDS011;1213;43.206;27.922;2022-08-14T08:38:43;11.17;;;6.17;;
2404;SDS011;1213;43.206;27.922;2022-08-14T08:41:13;8.73;;;6.87;;
2404;SDS011;1213;43.206;27.922;2022-08-14T08:43:39;8.27;;;7.00;;
2404;SDS011;1213;43.206;27.922;2022-08-14T08:46:09;10.87;;;7.77;;
2404;SDS011;1213;43.206;27.922;2022-08-14T08:48:44;12.70;;;6.93;;
2404;SDS011;1213;43.206;27.922;2022-08-14T08:51:27;7.53;;;6.27;;
2404;SDS011;1213;43.206;27.922;2022-08-14T08:54:01;9.60;;;6.40;;
2404;SDS011;1213;43.206;27.922;2022-08-14T08:56:33;12.13;;;8.60;;
2404;SDS011;1213;43.206;27.922;2022-08-14T09:01:52;11.23;;;7.57;;
2404;SDS011;1213;43.206;27.922;2022-08-14T09:04:21;11.40;;;7.17;;
2404;SDS011;1213;43.206;27.922;2022-08-14T09:06:47;11.70;;;7.10;;
2404;SDS011;1213;43.206;27.922;2022-08-14T09:09:18;11.70;;;7.97;;
2404;SDS011;1213;43.206;27.922;2022-08-14T09:11:45;18.53;;;7.40;;
2404;SDS011;1213;43.206;27.922;2022-08-14T09:14:11;11.07;;;6.83;;
2404;SDS011;1213;43.206;27.922;2022-08-14T09:16:37;9.67;;;7.27;;
2404;SDS011;1213;43.206;27.922;2022-08-14T09:19:03;10.07;;;7.40;;
2404;SDS011;1213;43.206;27.922;2022-08-14T09:21:30;10.53;;;6.93;;
2404;SDS011;1213;43.206;27.922;2022-08-14T09:23:58;10.80;;;6.73;;
2404;SDS011;1213;43.206;27.922;2022-08-14T09:26:24;8.93;;;7.10;;
2404;SDS011;1213;43.206;27.922;2022-08-14T09:28:50;13.33;;;6.40;;
2404;SDS011;1213;43.206;27.922;2022-08-14T09:31:16;12.43;;;8.60;;
2404;SDS011;1213;43.206;27.922;2022-08-14T09:47:47;8.73;;;6.83;;
2404;SDS011;1213;43.206;27.922;2022-08-14T09:50:22;8.27;;;6.10;;
2404;SDS011;1213;43.206;27.922;2022-08-14T09:52:54;8.17;;;6.70;;
2404;SDS011;1213;43.206;27.922;2022-08-14T09:55:20;12.03;;;7.73;;
2404;SDS011;1213;43.206;27.922;2022-08-14T09:57:48;10.90;;;7.90;;
2404;SDS011;1213;43.206;27.922;2022-08-14T10:00:16;9.63;;;6.90;;
2404;SDS011;1213;43.206;27.922;2022-08-14T10:02:54;8.70;;;7.03;;
2404;SDS011;1213;43.206;27.922;2022-08-14T10:05:33;11.53;;;8.00;;
2404;SDS011;1213;43.206;27.922;2022-08-14T10:08:00;8.73;;;6.50;;
2404;SDS011;1213;43.206;27.922;2022-08-14T10:13:02;11.50;;;7.30;;
2404;SDS011;1213;43.206;27.922;2022-08-14T10:15:31;9.20;;;6.83;;
2404;SDS011;1213;43.206;27.922;2022-08-14T10:20:38;12.67;;;8.30;;
2404;SDS011;1213;43.206;27.922;2022-08-14T10:23:13;11.20;;;7.63;;
2404;SDS011;1213;43.206;27.922;2022-08-14T10:25:45;10.90;;;7.43;;
2404;SDS011;1213;43.206;27.922;2022-08-14T10:28:16;9.37;;;7.57;;
2404;SDS011;1213;43.206;27.922;2022-08-14T10:30:44;9.63;;;7.57;;
2404;SDS011;1213;43.206;27.922;2022-08-14T10:36:10;8.60;;;6.40;;
2404;SDS011;1213;43.206;27.922;2022-08-14T10:38:35;7.97;;;6.67;;
2404;SDS011;1213;43.206;27.922;2022-08-14T10:41:35;10.40;;;7.40;;
2404;SDS011;1213;43.206;27.922;2022-08-14T10:44:07;9.33;;;6.77;;
2404;SDS011;1213;43.206;27.922;2022-08-14T10:46:39;10.03;;;6.90;;
2404;SDS011;1213;43.206;27.922;2022-08-14T10:49:22;9.47;;;6.20;;
2404;SDS011;1213;43.206;27.922;2022-08-14T10:51:56;8.30;;;6.47;;
2404;SDS011;1213;43.206;27.922;2022-08-14T10:59:52;8.40;;;6.53;;
2404;SDS011;1213;43.206;27.922;2022-08-14T11:04:57;9.80;;;7.40;;
2404;SDS011;1213;43.206;27.922;2022-08-14T11:07:29;10.17;;;7.00;;
2404;SDS011;1213;43.206;27.922;2022-08-14T11:09:56;9.30;;;7.47;;
2404;SDS011;1213;43.206;27.922;2022-08-14T11:12:26;9.33;;;7.10;;
2404;SDS011;1213;43.206;27.922;2022-08-14T11:15:04;7.97;;;5.93;;
2404;SDS011;1213;43.206;27.922;2022-08-14T11:17:31;8.37;;;6.60;;
2404;SDS011;1213;43.206;27.922;2022-08-14T11:20:02;80.83;;;62.30;;
2404;SDS011;1213;43.206;27.922;2022-08-14T11:22:31;27.10;;;17.43;;
2404;SDS011;1213;43.206;27.922;2022-08-14T11:25:04;14.53;;;7.20;;
2404;SDS011;1213;43.206;27.922;2022-08-14T11:27:32;9.30;;;5.87;;
2404;SDS011;1213;43.206;27.922;2022-08-14T11:29:59;8.57;;;6.73;;
2404;SDS011;1213;43.206;27.922;2022-08-14T11:32:26;9.20;;;6.40;;
2404;SDS011;1213;43.206;27.922;2022-08-14T11:34:53;10.27;;;6.63;;
2404;SDS011;1213;43.206;27.922;2022-08-14T11:37:18;9.97;;;6.90;;
2404;SDS011;1213;43.206;27.922;2022-08-14T11:39:45;8.67;;;6.07;;
2404;SDS011;1213;43.206;27.922;2022-08-14T11:42:22;8.30;;;6.57;;
2404;SDS011;1213;43.206;27.922;2022-08-14T11:44:49;8.87;;;6.73;;
2404;SDS011;1213;43.206;27.922;2022-08-14T11:47:21;9.20;;;6.30;;
2404;SDS011;1213;43.206;27.922;2022-08-14T11:49:47;10.80;;;7.03;;
2404;SDS011;1213;43.206;27.922;2022-08-14T11:52:14;11.03;;;7.60;;
2404;SDS011;1213;43.206;27.922;2022-08-14T11:54:41;8.13;;;6.50;;
2404;SDS011;1213;43.206;27.922;2022-08-14T11:57:13;10.40;;;7.53;;
2404;SDS011;1213;43.206;27.922;2022-08-14T11:59:39;11.23;;;7.70;;
2404;SDS011;1213;43.206;27.922;2022-08-14T12:02:10;9.60;;;6.73;;
2404;SDS011;1213;43.206;27.922;2022-08-14T12:04:49;11.97;;;8.20;;
2404;SDS011;1213;43.206;27.922;2022-08-14T12:07:17;11.60;;;7.83;;
2404;SDS011;1213;43.206;27.922;2022-08-14T12:09:43;10.83;;;7.83;;
2404;SDS011;1213;43.206;27.922;2022-08-14T12:12:17;10.50;;;6.90;;
2404;SDS011;1213;43.206;27.922;2022-08-14T12:14:51;10.30;;;7.63;;
2404;SDS011;1213;43.206;27.922;2022-08-14T12:17:24;14.57;;;7.10;;
2404;SDS011;1213;43.206;27.922;2022-08-14T12:20:00;11.27;;;7.80;;
2404;SDS011;1213;43.206;27.922;2022-08-14T12:25:01;9.47;;;6.47;;
2404;SDS011;1213;43.206;27.922;2022-08-14T12:27:40;8.20;;;7.00;;
2404;SDS011;1213;43.206;27.922;2022-08-14T12:30:09;9.03;;;6.87;;
2404;SDS011;1213;43.206;27.922;2022-08-14T12:32:38;8.40;;;6.80;;
2404;SDS011;1213;43.206;27.922;2022-08-14T12:35:05;11.67;;;7.10;;
2404;SDS011;1213;43.206;27.922;2022-08-14T12:37:34;11.87;;;7.60;;
2404;SDS011;1213;43.206;27.922;2022-08-14T12:40:13;11.80;;;8.67;;
2404;SDS011;1213;43.206;27.922;2022-08-14T12:42:40;9.60;;;6.87;;
2404;SDS011;1213;43.206;27.922;2022-08-14T12:45:07;9.20;;;7.50;;
2404;SDS011;1213;43.206;27.922;2022-08-14T12:47:36;9.33;;;7.73;;
2404;SDS011;1213;43.206;27.922;2022-08-14T12:50:02;9.53;;;7.50;;
2404;SDS011;1213;43.206;27.922;2022-08-14T12:52:31;12.40;;;7.33;;
2404;SDS011;1213;43.206;27.922;2022-08-14T12:54:59;9.30;;;7.07;;
2404;SDS011;1213;43.206;27.922;2022-08-14T12:57:41;11.10;;;7.40;;
2404;SDS011;1213;43.206;27.922;2022-08-14T13:02:41;10.80;;;6.90;;
2404;SDS011;1213;43.206;27.922;2022-08-14T13:05:08;7.70;;;6.90;;
2404;SDS011;1213;43.206;27.922;2022-08-14T13:07:36;7.27;;;6.47;;
2404;SDS011;1213;43.206;27.922;2022-08-14T13:10:04;9.93;;;7.07;;
2404;SDS011;1213;43.206;27.922;2022-08-14T13:12:31;7.80;;;6.37;;
2404;SDS011;1213;43.206;27.922;2022-08-14T13:14:57;7.47;;;6.10;;
2404;SDS011;1213;43.206;27.922;2022-08-14T13:17:24;7.90;;;6.40;;
2404;SDS011;1213;43.206;27.922;2022-08-14T13:19:54;8.60;;;6.50;;
2404;SDS011;1213;43.206;27.922;2022-08-14T13:22:24;8.70;;;6.37;;
2404;SDS011;1213;43.206;27.922;2022-08-14T13:24:53;7.33;;;6.27;;
2404;SDS011;1213;43.206;27.922;2022-08-14T13:27:22;6.80;;;6.10;;
2404;SDS011;1213;43.206;27.922;2022-08-14T13:29:51;9.10;;;6.83;;
2404;SDS011;1213;43.206;27.922;2022-08-14T13:32:22;9.13;;;6.40;;
2404;SDS011;1213;43.206;27.922;2022-08-14T13:34:49;8.57;;;6.47;;
2404;SDS011;1213;43.206;27.922;2022-08-14T13:37:15;6.40;;;5.70;;
2404;SDS011;1213;43.206;27.922;2022-08-14T13:39:46;5.80;;;4.40;;
2404;SDS011;1213;43.206;27.922;2022-08-14T13:42:22;6.20;;;4.83;;
2404;SDS011;1213;43.206;27.922;2022-08-14T13:44:51;7.80;;;3.33;;
2404;SDS011;1213;43.206;27.922;2022-08-14T13:47:19;5.43;;;4.37;;
2404;SDS011;1213;43.206;27.922;2022-08-14T13:49:45;4.10;;;3.70;;
2404;SDS011;1213;43.206;27.922;2022-08-14T13:52:12;4.90;;;4.00;;
2404;SDS011;1213;43.206;27.922;2022-08-14T13:54:43;5.67;;;4.07;;
2404;SDS011;1213;43.206;27.922;2022-08-14T13:57:14;4.67;;;4.17;;
2404;SDS011;1213;43.206;27.922;2022-08-14T13:59:47;5.63;;;3.60;;
2404;SDS011;1213;43.206;27.922;2022-08-14T14:02:15;5.60;;;3.33;;
2404;SDS011;1213;43.206;27.922;2022-08-14T14:04:43;5.10;;;3.87;;
2404;SDS011;1213;43.206;27.922;2022-08-14T14:07:11;4.30;;;3.90;;
2404;SDS011;1213;43.206;27.922;2022-08-14T14:09:40;6.10;;;4.13;;
2404;SDS011;1213;43.206;27.922;2022-08-14T14:12:07;8.40;;;4.50;;
2404;SDS011;1213;43.206;27.922;2022-08-14T14:14:36;7.50;;;4.27;;
2404;SDS011;1213;43.206;27.922;2022-08-14T14:17:06;3.53;;;3.20;;
2404;SDS011;1213;43.206;27.922;2022-08-14T14:19:34;4.53;;;3.93;;
2404;SDS011;1213;43.206;27.922;2022-08-14T14:22:00;4.80;;;3.70;;
2404;SDS011;1213;43.206;27.922;2022-08-14T14:24:27;4.20;;;3.23;;
2404;SDS011;1213;43.206;27.922;2022-08-14T14:26:53;5.77;;;3.80;;
2404;SDS011;1213;43.206;27.922;2022-08-14T14:29:23;5.20;;;4.03;;
2404;SDS011;1213;43.206;27.922;2022-08-14T14:31:50;5.27;;;4.03;;
2404;SDS011;1213;43.206;27.922;2022-08-14T14:34:16;6.77;;;4.00;;
2404;SDS011;1213;43.206;27.922;2022-08-14T14:36:46;5.10;;;4.10;;
2404;SDS011;1213;43.206;27.922;2022-08-14T14:39:14;6.00;;;3.80;;
2404;SDS011;1213;43.206;27.922;2022-08-14T14:41:41;4.57;;;3.50;;
2404;SDS011;1213;43.206;27.922;2022-08-14T14:44:09;4.27;;;3.20;;
2404;SDS011;1213;43.206;27.922;2022-08-14T14:46:37;4.80;;;3.63;;
2404;SDS011;1213;43.206;27.922;2022-08-14T14:49:06;5.53;;;3.50;;
2404;SDS011;1213;43.206;27.922;2022-08-14T14:51:37;3.40;;;3.10;;
2404;SDS011;1213;43.206;27.922;2022-08-14T14:54:04;6.87;;;4.60;;
2404;SDS011;1213;43.206;27.922;2022-08-14T14:56:32;11.67;;;4.90;;
2404;SDS011;1213;43.206;27.922;2022-08-14T14:58:58;5.13;;;4.53;;
2404;SDS011;1213;43.206;27.922;2022-08-14T15:01:24;7.50;;;5.70;;
2404;SDS011;1213;43.206;27.922;2022-08-14T15:03:50;6.63;;;5.20;;
2404;SDS011;1213;43.206;27.922;2022-08-14T15:06:28;10.17;;;5.90;;
2404;SDS011;1213;43.206;27.922;2022-08-14T15:08:55;7.67;;;5.40;;
2404;SDS011;1213;43.206;27.922;2022-08-14T15:11:21;6.70;;;4.57;;
2404;SDS011;1213;43.206;27.922;2022-08-14T15:13:46;5.60;;;4.10;;
2404;SDS011;1213;43.206;27.922;2022-08-14T15:16:12;7.50;;;5.13;;
2404;SDS011;1213;43.206;27.922;2022-08-14T15:18:38;4.73;;;3.70;;
2404;SDS011;1213;43.206;27.922;2022-08-14T15:21:04;4.30;;;3.50;;
2404;SDS011;1213;43.206;27.922;2022-08-14T15:23:30;6.47;;;4.37;;
2404;SDS011;1213;43.206;27.922;2022-08-14T15:25:57;6.53;;;4.30;;
2404;SDS011;1213;43.206;27.922;2022-08-14T15:28:24;7.67;;;4.97;;
2404;SDS011;1213;43.206;27.922;2022-08-14T15:30:50;9.70;;;5.63;;
2404;SDS011;1213;43.206;27.922;2022-08-14T15:33:17;9.60;;;5.50;;
2404;SDS011;1213;43.206;27.922;2022-08-14T15:36:02;9.33;;;4.63;;
2404;SDS011;1213;43.206;27.922;2022-08-14T15:38:28;6.53;;;4.90;;
2404;SDS011;1213;43.206;27.922;2022-08-14T15:40:55;4.90;;;3.60;;